sensor_id;sensor_type;location;lat;lon;timestamp;P1;durP1;ratioP1;P2;durP2;ratioP2
33266;SDS011;19638;49.080;11.896;2023-04-10T00:03:18;27.97;;;12.23;;
33266;SDS011;19638;49.080;11.896;2023-04-10T00:07:22;29.73;;;13.13;;
33266;SDS011;19638;49.080;11.896;2023-04-10T00:11:27;32.47;;;13.60;;
33266;SDS011;19638;49.080;11.896;2023-04-10T00:15:30;33.57;;;14.47;;
33266;SDS011;19638;49.080;11.896;2023-04-10T00:19:33;29.03;;;13.30;;
33266;SDS011;19638;49.080;11.896;2023-04-10T00:23:38;34.73;;;15.80;;
33266;SDS011;19638;49.080;11.896;2023-04-10T00:27:44;38.73;;;16.00;;
33266;SDS011;19638;49.080;11.896;2023-04-10T00:31:47;31.33;;;15.17;;
33266;SDS011;19638;49.080;11.896;2023-04-10T00:35:50;40.27;;;16.17;;
33266;SDS011;19638;49.080;11.896;2023-04-10T00:40:01;32.10;;;15.17;;
33266;SDS011;19638;49.080;11.896;2023-04-10T00:44:06;40.63;;;16.23;;
33266;SDS011;19638;49.080;11.896;2023-04-10T00:48:13;36.83;;;16.13;;
33266;SDS011;19638;49.080;11.896;2023-04-10T00:52:18;36.80;;;15.40;;
33266;SDS011;19638;49.080;11.896;2023-04-10T00:56:22;36.07;;;15.47;;
33266;SDS011;19638;49.080;11.896;2023-04-10T01:00:29;31.50;;;14.27;;
33266;SDS011;19638;49.080;11.896;2023-04-10T01:04:37;34.67;;;15.07;;
33266;SDS011;19638;49.080;11.896;2023-04-10T01:08:44;33.80;;;14.80;;
33266;SDS011;19638;49.080;11.896;2023-04-10T01:12:53;33.97;;;14.97;;
33266;SDS011;19638;49.080;11.896;2023-04-10T01:17:08;29.73;;;13.47;;
33266;SDS011;19638;49.080;11.896;2023-04-10T01:21:15;29.83;;;13.93;;
33266;SDS011;19638;49.080;11.896;2023-04-10T01:25:29;28.33;;;13.27;;
33266;SDS011;19638;49.080;11.896;2023-04-10T01:29:45;30.77;;;14.03;;
33266;SDS011;19638;49.080;11.896;2023-04-10T01:34:03;31.77;;;14.73;;
33266;SDS011;19638;49.080;11.896;2023-04-10T01:38:09;29.63;;;12.87;;
33266;SDS011;19638;49.080;11.896;2023-04-10T01:42:22;31.07;;;13.77;;
33266;SDS011;19638;49.080;11.896;2023-04-10T01:46:31;24.93;;;12.00;;
33266;SDS011;19638;49.080;11.896;2023-04-10T01:50:38;24.67;;;11.73;;
33266;SDS011;19638;49.080;11.896;2023-04-10T01:54:46;28.40;;;13.07;;
33266;SDS011;19638;49.080;11.896;2023-04-10T01:58:52;25.00;;;11.43;;
33266;SDS011;19638;49.080;11.896;2023-04-10T02:02:59;30.87;;;13.50;;
33266;SDS011;19638;49.080;11.896;2023-04-10T02:07:06;27.90;;;13.07;;
33266;SDS011;19638;49.080;11.896;2023-04-10T02:11:16;31.93;;;13.17;;
33266;SDS011;19638;49.080;11.896;2023-04-10T02:15:27;26.10;;;11.53;;
33266;SDS011;19638;49.080;11.896;2023-04-10T02:19:35;27.60;;;12.10;;
33266;SDS011;19638;49.080;11.896;2023-04-10T02:23:39;31.20;;;12.87;;
33266;SDS011;19638;49.080;11.896;2023-04-10T02:27:44;32.83;;;12.17;;
33266;SDS011;19638;49.080;11.896;2023-04-10T02:31:49;28.93;;;13.43;;
33266;SDS011;19638;49.080;11.896;2023-04-10T02:35:54;23.80;;;11.47;;
33266;SDS011;19638;49.080;11.896;2023-04-10T02:39:59;26.53;;;12.07;;
33266;SDS011;19638;49.080;11.896;2023-04-10T02:44:07;27.03;;;11.83;;
33266;SDS011;19638;49.080;11.896;2023-04-10T02:48:15;31.93;;;13.07;;
33266;SDS011;19638;49.080;11.896;2023-04-10T02:52:21;32.70;;;14.07;;
33266;SDS011;19638;49.080;11.896;2023-04-10T02:56:24;29.10;;;12.13;;
33266;SDS011;19638;49.080;11.896;2023-04-10T03:00:31;28.73;;;13.30;;
33266;SDS011;19638;49.080;11.896;2023-04-10T03:04:39;32.67;;;13.57;;
33266;SDS011;19638;49.080;11.896;2023-04-10T03:08:43;28.93;;;13.40;;
33266;SDS011;19638;49.080;11.896;2023-04-10T03:12:48;28.50;;;13.03;;
33266;SDS011;19638;49.080;11.896;2023-04-10T03:16:56;32.07;;;12.87;;
33266;SDS011;19638;49.080;11.896;2023-04-10T03:20:59;28.30;;;12.33;;
33266;SDS011;19638;49.080;11.896;2023-04-10T03:25:04;32.07;;;13.17;;
33266;SDS011;19638;49.080;11.896;2023-04-10T03:29:11;27.57;;;13.17;;
33266;SDS011;19638;49.080;11.896;2023-04-10T03:33:15;35.50;;;14.80;;
33266;SDS011;19638;49.080;11.896;2023-04-10T03:37:18;32.77;;;13.60;;
33266;SDS011;19638;49.080;11.896;2023-04-10T03:41:23;34.07;;;14.30;;
33266;SDS011;19638;49.080;11.896;2023-04-10T03:45:26;34.93;;;12.67;;
33266;SDS011;19638;49.080;11.896;2023-04-10T03:49:29;26.80;;;12.23;;
33266;SDS011;19638;49.080;11.896;2023-04-10T03:53:32;29.23;;;13.53;;
33266;SDS011;19638;49.080;11.896;2023-04-10T03:57:39;28.07;;;12.30;;
33266;SDS011;19638;49.080;11.896;2023-04-10T04:01:44;33.43;;;12.73;;
33266;SDS011;19638;49.080;11.896;2023-04-10T04:05:47;27.90;;;12.23;;
33266;SDS011;19638;49.080;11.896;2023-04-10T04:09:50;27.67;;;12.20;;
33266;SDS011;19638;49.080;11.896;2023-04-10T04:13:58;26.90;;;12.10;;
33266;SDS011;19638;49.080;11.896;2023-04-10T04:18:03;27.33;;;12.90;;
33266;SDS011;19638;49.080;11.896;2023-04-10T04:22:09;31.43;;;12.83;;
33266;SDS011;19638;49.080;11.896;2023-04-10T04:26:12;37.00;;;13.43;;
33266;SDS011;19638;49.080;11.896;2023-04-10T04:30:17;31.53;;;12.60;;
33266;SDS011;19638;49.080;11.896;2023-04-10T04:34:20;28.23;;;11.97;;
33266;SDS011;19638;49.080;11.896;2023-04-10T04:38:23;34.47;;;12.00;;
33266;SDS011;19638;49.080;11.896;2023-04-10T04:42:29;24.50;;;11.63;;
33266;SDS011;19638;49.080;11.896;2023-04-10T04:46:34;27.90;;;12.60;;
33266;SDS011;19638;49.080;11.896;2023-04-10T04:50:39;26.63;;;12.03;;
33266;SDS011;19638;49.080;11.896;2023-04-10T04:54:44;30.73;;;12.33;;
33266;SDS011;19638;49.080;11.896;2023-04-10T04:58:47;29.10;;;12.40;;
33266;SDS011;19638;49.080;11.896;2023-04-10T05:02:54;28.63;;;12.63;;
33266;SDS011;19638;49.080;11.896;2023-04-10T05:06:59;29.77;;;13.13;;
33266;SDS011;19638;49.080;11.896;2023-04-10T05:11:02;33.03;;;12.43;;
33266;SDS011;19638;49.080;11.896;2023-04-10T05:15:06;29.70;;;11.93;;
33266;SDS011;19638;49.080;11.896;2023-04-10T05:19:11;28.40;;;12.63;;
33266;SDS011;19638;49.080;11.896;2023-04-10T05:23:14;27.70;;;12.87;;
33266;SDS011;19638;49.080;11.896;2023-04-10T05:27:17;26.43;;;11.90;;
33266;SDS011;19638;49.080;11.896;2023-04-10T05:31:23;26.20;;;11.53;;
33266;SDS011;19638;49.080;11.896;2023-04-10T05:35:29;27.73;;;11.77;;
33266;SDS011;19638;49.080;11.896;2023-04-10T05:39:32;24.30;;;11.73;;
33266;SDS011;19638;49.080;11.896;2023-04-10T05:43:37;23.70;;;11.73;;
33266;SDS011;19638;49.080;11.896;2023-04-10T05:47:43;25.73;;;13.03;;
33266;SDS011;19638;49.080;11.896;2023-04-10T05:51:48;29.93;;;14.10;;
33266;SDS011;19638;49.080;11.896;2023-04-10T05:55:52;22.47;;;11.80;;
33266;SDS011;19638;49.080;11.896;2023-04-10T05:59:57;28.57;;;13.37;;
33266;SDS011;19638;49.080;11.896;2023-04-10T06:04:02;29.80;;;12.67;;
33266;SDS011;19638;49.080;11.896;2023-04-10T06:08:07;28.27;;;13.70;;
33266;SDS011;19638;49.080;11.896;2023-04-10T06:12:10;29.00;;;13.00;;
33266;SDS011;19638;49.080;11.896;2023-04-10T06:16:15;24.33;;;12.23;;
33266;SDS011;19638;49.080;11.896;2023-04-10T06:20:18;29.37;;;13.80;;
33266;SDS011;19638;49.080;11.896;2023-04-10T06:24:23;34.13;;;14.67;;
33266;SDS011;19638;49.080;11.896;2023-04-10T06:28:26;27.97;;;13.43;;
33266;SDS011;19638;49.080;11.896;2023-04-10T06:32:30;27.70;;;13.47;;
33266;SDS011;19638;49.080;11.896;2023-04-10T06:36:33;28.43;;;13.93;;
33266;SDS011;19638;49.080;11.896;2023-04-10T06:40:37;29.00;;;14.03;;
33266;SDS011;19638;49.080;11.896;2023-04-10T06:44:45;31.13;;;14.77;;
33266;SDS011;19638;49.080;11.896;2023-04-10T06:48:49;38.10;;;16.97;;
33266;SDS011;19638;49.080;11.896;2023-04-10T06:52:53;44.97;;;19.60;;
33266;SDS011;19638;49.080;11.896;2023-04-10T06:57:01;38.97;;;18.27;;
33266;SDS011;19638;49.080;11.896;2023-04-10T07:01:05;39.27;;;19.27;;
33266;SDS011;19638;49.080;11.896;2023-04-10T07:05:08;37.47;;;18.53;;
33266;SDS011;19638;49.080;11.896;2023-04-10T07:09:14;37.87;;;18.30;;
33266;SDS011;19638;49.080;11.896;2023-04-10T07:13:18;39.73;;;18.30;;
33266;SDS011;19638;49.080;11.896;2023-04-10T07:17:24;35.30;;;17.13;;
33266;SDS011;19638;49.080;11.896;2023-04-10T07:21:28;35.57;;;17.87;;
33266;SDS011;19638;49.080;11.896;2023-04-10T07:25:36;34.03;;;17.03;;
33266;SDS011;19638;49.080;11.896;2023-04-10T07:29:40;32.53;;;16.43;;
33266;SDS011;19638;49.080;11.896;2023-04-10T07:33:44;31.13;;;16.50;;
33266;SDS011;19638;49.080;11.896;2023-04-10T07:37:50;33.80;;;16.20;;
33266;SDS011;19638;49.080;11.896;2023-04-10T07:41:56;29.67;;;16.10;;
33266;SDS011;19638;49.080;11.896;2023-04-10T07:46:00;28.13;;;15.50;;
33266;SDS011;19638;49.080;11.896;2023-04-10T07:50:08;30.10;;;16.53;;
33266;SDS011;19638;49.080;11.896;2023-04-10T07:54:16;27.50;;;16.53;;
33266;SDS011;19638;49.080;11.896;2023-04-10T07:58:20;28.13;;;15.93;;
33266;SDS011;19638;49.080;11.896;2023-04-10T08:02:24;27.80;;;15.50;;
33266;SDS011;19638;49.080;11.896;2023-04-10T08:06:27;30.35;;;15.93;;
33266;SDS011;19638;49.080;11.896;2023-04-10T08:10:30;26.73;;;16.08;;
33266;SDS011;19638;49.080;11.896;2023-04-10T08:14:33;25.73;;;14.38;;
33266;SDS011;19638;49.080;11.896;2023-04-10T08:18:41;24.65;;;14.73;;
33266;SDS011;19638;49.080;11.896;2023-04-10T08:22:46;22.52;;;14.35;;
33266;SDS011;19638;49.080;11.896;2023-04-10T08:26:49;23.83;;;14.85;;
33266;SDS011;19638;49.080;11.896;2023-04-10T08:31:01;27.95;;;14.70;;
33266;SDS011;19638;49.080;11.896;2023-04-10T08:35:08;24.13;;;12.88;;
33266;SDS011;19638;49.080;11.896;2023-04-10T08:39:13;22.70;;;13.30;;
33266;SDS011;19638;49.080;11.896;2023-04-10T08:43:16;24.15;;;13.75;;
33266;SDS011;19638;49.080;11.896;2023-04-10T08:47:19;20.27;;;12.95;;
33266;SDS011;19638;49.080;11.896;2023-04-10T08:51:25;22.08;;;13.40;;
33266;SDS011;19638;49.080;11.896;2023-04-10T08:55:38;22.75;;;12.60;;
33266;SDS011;19638;49.080;11.896;2023-04-10T08:59:42;19.52;;;11.50;;
33266;SDS011;19638;49.080;11.896;2023-04-10T09:03:47;20.27;;;12.85;;
33266;SDS011;19638;49.080;11.896;2023-04-10T09:07:56;21.45;;;12.63;;
33266;SDS011;19638;49.080;11.896;2023-04-10T09:11:59;21.60;;;12.50;;
33266;SDS011;19638;49.080;11.896;2023-04-10T09:16:04;19.92;;;11.68;;
33266;SDS011;19638;49.080;11.896;2023-04-10T09:20:19;18.35;;;11.75;;
33266;SDS011;19638;49.080;11.896;2023-04-10T09:24:24;21.65;;;13.07;;
33266;SDS011;19638;49.080;11.896;2023-04-10T09:28:29;16.75;;;11.20;;
33266;SDS011;19638;49.080;11.896;2023-04-10T09:32:36;17.25;;;11.68;;
33266;SDS011;19638;49.080;11.896;2023-04-10T09:36:43;16.98;;;11.70;;
33266;SDS011;19638;49.080;11.896;2023-04-10T09:41:05;17.33;;;11.75;;
33266;SDS011;19638;49.080;11.896;2023-04-10T09:45:08;17.33;;;11.90;;
33266;SDS011;19638;49.080;11.896;2023-04-10T09:49:14;17.27;;;11.75;;
33266;SDS011;19638;49.080;11.896;2023-04-10T09:53:18;19.00;;;11.93;;
33266;SDS011;19638;49.080;11.896;2023-04-10T09:57:25;19.48;;;11.10;;
33266;SDS011;19638;49.080;11.896;2023-04-10T10:01:32;16.10;;;11.07;;
33266;SDS011;19638;49.080;11.896;2023-04-10T10:05:37;17.50;;;11.60;;
33266;SDS011;19638;49.080;11.896;2023-04-10T10:09:48;17.23;;;10.98;;
33266;SDS011;19638;49.080;11.896;2023-04-10T10:13:54;16.25;;;10.35;;
33266;SDS011;19638;49.080;11.896;2023-04-10T10:18:06;16.45;;;10.65;;
33266;SDS011;19638;49.080;11.896;2023-04-10T10:22:15;13.32;;;9.27;;
33266;SDS011;19638;49.080;11.896;2023-04-10T10:26:18;13.13;;;9.02;;
33266;SDS011;19638;49.080;11.896;2023-04-10T10:30:23;13.98;;;9.00;;
33266;SDS011;19638;49.080;11.896;2023-04-10T10:34:31;13.07;;;9.02;;
33266;SDS011;19638;49.080;11.896;2023-04-10T10:38:34;14.20;;;9.38;;
33266;SDS011;19638;49.080;11.896;2023-04-10T10:42:45;12.32;;;8.75;;
33266;SDS011;19638;49.080;11.896;2023-04-10T10:47:03;14.80;;;9.20;;
33266;SDS011;19638;49.080;11.896;2023-04-10T10:51:10;12.25;;;8.40;;
33266;SDS011;19638;49.080;11.896;2023-04-10T10:55:28;12.70;;;9.30;;
33266;SDS011;19638;49.080;11.896;2023-04-10T10:59:55;32.22;;;19.92;;
33266;SDS011;19638;49.080;11.896;2023-04-10T11:04:02;19.90;;;13.45;;
33266;SDS011;19638;49.080;11.896;2023-04-10T11:08:44;13.35;;;9.38;;
33266;SDS011;19638;49.080;11.896;2023-04-10T11:17:28;10.68;;;7.82;;
33266;SDS011;19638;49.080;11.896;2023-04-10T11:22:06;10.30;;;7.63;;
33266;SDS011;19638;49.080;11.896;2023-04-10T11:26:10;12.55;;;9.18;;
33266;SDS011;19638;49.080;11.896;2023-04-10T11:30:24;10.52;;;7.97;;
33266;SDS011;19638;49.080;11.896;2023-04-10T11:34:30;13.68;;;7.72;;
33266;SDS011;19638;49.080;11.896;2023-04-10T11:38:35;13.02;;;8.65;;
33266;SDS011;19638;49.080;11.896;2023-04-10T11:42:41;13.15;;;9.25;;
33266;SDS011;19638;49.080;11.896;2023-04-10T11:46:44;13.32;;;8.95;;
33266;SDS011;19638;49.080;11.896;2023-04-10T11:50:48;14.05;;;9.13;;
33266;SDS011;19638;49.080;11.896;2023-04-10T11:54:52;14.05;;;9.95;;
33266;SDS011;19638;49.080;11.896;2023-04-10T11:58:55;13.95;;;9.65;;
33266;SDS011;19638;49.080;11.896;2023-04-10T12:03:00;11.82;;;8.45;;
33266;SDS011;19638;49.080;11.896;2023-04-10T12:07:05;12.15;;;8.63;;
33266;SDS011;19638;49.080;11.896;2023-04-10T12:11:16;12.20;;;8.98;;
33266;SDS011;19638;49.080;11.896;2023-04-10T12:15:25;12.48;;;8.68;;
33266;SDS011;19638;49.080;11.896;2023-04-10T12:19:31;11.18;;;8.18;;
33266;SDS011;19638;49.080;11.896;2023-04-10T12:23:37;11.07;;;7.65;;
33266;SDS011;19638;49.080;11.896;2023-04-10T12:27:48;11.80;;;8.48;;
33266;SDS011;19638;49.080;11.896;2023-04-10T12:31:54;11.82;;;7.95;;
33266;SDS011;19638;49.080;11.896;2023-04-10T12:35:59;11.68;;;8.55;;
33266;SDS011;19638;49.080;11.896;2023-04-10T12:40:06;11.45;;;7.90;;
33266;SDS011;19638;49.080;11.896;2023-04-10T12:44:11;11.55;;;8.30;;
33266;SDS011;19638;49.080;11.896;2023-04-10T12:48:21;10.02;;;7.40;;
33266;SDS011;19638;49.080;11.896;2023-04-10T12:52:24;10.02;;;6.93;;
33266;SDS011;19638;49.080;11.896;2023-04-10T12:56:27;12.70;;;7.55;;
33266;SDS011;19638;49.080;11.896;2023-04-10T13:00:45;11.52;;;7.65;;
33266;SDS011;19638;49.080;11.896;2023-04-10T13:04:50;9.73;;;6.82;;
33266;SDS011;19638;49.080;11.896;2023-04-10T13:08:56;9.23;;;7.00;;
33266;SDS011;19638;49.080;11.896;2023-04-10T13:13:01;10.70;;;7.35;;
33266;SDS011;19638;49.080;11.896;2023-04-10T13:17:08;11.90;;;7.30;;
33266;SDS011;19638;49.080;11.896;2023-04-10T13:21:15;11.32;;;7.85;;
33266;SDS011;19638;49.080;11.896;2023-04-10T13:25:22;12.93;;;7.43;;
33266;SDS011;19638;49.080;11.896;2023-04-10T13:29:30;10.02;;;7.10;;
33266;SDS011;19638;49.080;11.896;2023-04-10T13:33:34;10.25;;;7.07;;
33266;SDS011;19638;49.080;11.896;2023-04-10T13:37:37;8.63;;;6.53;;
33266;SDS011;19638;49.080;11.896;2023-04-10T13:41:42;11.02;;;7.60;;
33266;SDS011;19638;49.080;11.896;2023-04-10T13:45:47;9.95;;;7.00;;
33266;SDS011;19638;49.080;11.896;2023-04-10T13:49:51;10.48;;;7.05;;
33266;SDS011;19638;49.080;11.896;2023-04-10T13:53:57;8.93;;;6.70;;
33266;SDS011;19638;49.080;11.896;2023-04-10T13:58:00;8.55;;;6.60;;
33266;SDS011;19638;49.080;11.896;2023-04-10T14:02:07;10.32;;;7.10;;
33266;SDS011;19638;49.080;11.896;2023-04-10T14:06:12;7.70;;;6.07;;
33266;SDS011;19638;49.080;11.896;2023-04-10T14:10:15;7.78;;;5.78;;
33266;SDS011;19638;49.080;11.896;2023-04-10T14:14:20;8.32;;;6.22;;
33266;SDS011;19638;49.080;11.896;2023-04-10T14:18:24;7.03;;;5.60;;
33266;SDS011;19638;49.080;11.896;2023-04-10T14:22:30;8.35;;;6.38;;
33266;SDS011;19638;49.080;11.896;2023-04-10T14:26:35;7.18;;;5.40;;
33266;SDS011;19638;49.080;11.896;2023-04-10T14:30:42;6.72;;;5.35;;
33266;SDS011;19638;49.080;11.896;2023-04-10T14:34:58;7.20;;;5.20;;
33266;SDS011;19638;49.080;11.896;2023-04-10T14:39:05;7.38;;;5.03;;
33266;SDS011;19638;49.080;11.896;2023-04-10T14:43:08;7.18;;;5.60;;
33266;SDS011;19638;49.080;11.896;2023-04-10T14:47:14;7.45;;;6.13;;
33266;SDS011;19638;49.080;11.896;2023-04-10T14:51:20;6.18;;;5.05;;
33266;SDS011;19638;49.080;11.896;2023-04-10T14:55:28;6.95;;;5.43;;
33266;SDS011;19638;49.080;11.896;2023-04-10T14:59:31;6.72;;;5.60;;
33266;SDS011;19638;49.080;11.896;2023-04-10T15:03:34;6.22;;;5.43;;
33266;SDS011;19638;49.080;11.896;2023-04-10T15:07:39;7.85;;;6.25;;
33266;SDS011;19638;49.080;11.896;2023-04-10T15:11:46;6.57;;;5.55;;
33266;SDS011;19638;49.080;11.896;2023-04-10T15:15:49;6.00;;;5.13;;
33266;SDS011;19638;49.080;11.896;2023-04-10T15:19:54;5.10;;;4.53;;
33266;SDS011;19638;49.080;11.896;2023-04-10T15:24:02;6.28;;;5.03;;
33266;SDS011;19638;49.080;11.896;2023-04-10T15:28:07;4.72;;;4.25;;
33266;SDS011;19638;49.080;11.896;2023-04-10T15:32:10;4.43;;;4.03;;
33266;SDS011;19638;49.080;11.896;2023-04-10T15:36:15;5.82;;;4.80;;
33266;SDS011;19638;49.080;11.896;2023-04-10T15:40:18;5.90;;;4.60;;
33266;SDS011;19638;49.080;11.896;2023-04-10T15:44:22;6.93;;;4.82;;
33266;SDS011;19638;49.080;11.896;2023-04-10T15:48:25;10.75;;;8.13;;
33266;SDS011;19638;49.080;11.896;2023-04-10T15:52:29;13.15;;;8.80;;
33266;SDS011;19638;49.080;11.896;2023-04-10T15:56:34;12.23;;;7.97;;
33266;SDS011;19638;49.080;11.896;2023-04-10T16:00:43;6.45;;;5.60;;
33266;SDS011;19638;49.080;11.896;2023-04-10T16:04:48;8.18;;;6.10;;
33266;SDS011;19638;49.080;11.896;2023-04-10T16:08:52;5.93;;;4.93;;
33266;SDS011;19638;49.080;11.896;2023-04-10T16:12:55;5.97;;;5.03;;
33266;SDS011;19638;49.080;11.896;2023-04-10T16:17:08;7.25;;;5.22;;
33266;SDS011;19638;49.080;11.896;2023-04-10T16:21:11;6.20;;;5.00;;
33266;SDS011;19638;49.080;11.896;2023-04-10T16:25:15;5.95;;;4.85;;
33266;SDS011;19638;49.080;11.896;2023-04-10T16:29:22;5.45;;;4.50;;
33266;SDS011;19638;49.080;11.896;2023-04-10T16:33:30;6.53;;;4.90;;
33266;SDS011;19638;49.080;11.896;2023-04-10T16:37:38;6.05;;;4.88;;
33266;SDS011;19638;49.080;11.896;2023-04-10T16:41:52;6.32;;;4.60;;
33266;SDS011;19638;49.080;11.896;2023-04-10T16:45:54;6.22;;;4.30;;
33266;SDS011;19638;49.080;11.896;2023-04-10T16:49:59;44.40;;;26.08;;
33266;SDS011;19638;49.080;11.896;2023-04-10T16:54:15;13.55;;;9.88;;
33266;SDS011;19638;49.080;11.896;2023-04-10T16:58:22;6.78;;;6.07;;
33266;SDS011;19638;49.080;11.896;2023-04-10T17:02:25;6.93;;;5.95;;
33266;SDS011;19638;49.080;11.896;2023-04-10T17:06:32;11.75;;;10.65;;
33266;SDS011;19638;49.080;11.896;2023-04-10T17:10:38;6.75;;;6.03;;
33266;SDS011;19638;49.080;11.896;2023-04-10T17:14:41;8.07;;;5.22;;
33266;SDS011;19638;49.080;11.896;2023-04-10T17:18:46;17.65;;;15.95;;
33266;SDS011;19638;49.080;11.896;2023-04-10T17:22:50;7.38;;;6.03;;
33266;SDS011;19638;49.080;11.896;2023-04-10T17:26:56;7.90;;;5.63;;
33266;SDS011;19638;49.080;11.896;2023-04-10T17:31:01;28.77;;;16.83;;
33266;SDS011;19638;49.080;11.896;2023-04-10T17:35:07;19.55;;;17.52;;
33266;SDS011;19638;49.080;11.896;2023-04-10T17:39:14;8.25;;;6.18;;
33266;SDS011;19638;49.080;11.896;2023-04-10T17:43:17;6.50;;;5.55;;
33266;SDS011;19638;49.080;11.896;2023-04-10T17:47:26;6.07;;;4.88;;
33266;SDS011;19638;49.080;11.896;2023-04-10T17:51:40;6.28;;;5.03;;
33266;SDS011;19638;49.080;11.896;2023-04-10T17:55:45;5.20;;;4.25;;
33266;SDS011;19638;49.080;11.896;2023-04-10T17:59:48;5.20;;;4.43;;
33266;SDS011;19638;49.080;11.896;2023-04-10T18:03:53;6.18;;;4.32;;
33266;SDS011;19638;49.080;11.896;2023-04-10T18:07:59;7.07;;;4.63;;
33266;SDS011;19638;49.080;11.896;2023-04-10T18:12:03;5.93;;;4.45;;
33266;SDS011;19638;49.080;11.896;2023-04-10T18:16:07;8.27;;;4.78;;
33266;SDS011;19638;49.080;11.896;2023-04-10T18:20:11;5.35;;;4.30;;
33266;SDS011;19638;49.080;11.896;2023-04-10T18:24:16;5.70;;;4.50;;
33266;SDS011;19638;49.080;11.896;2023-04-10T18:28:21;7.60;;;5.53;;
33266;SDS011;19638;49.080;11.896;2023-04-10T18:32:24;9.95;;;4.90;;
33266;SDS011;19638;49.080;11.896;2023-04-10T18:36:33;8.82;;;6.18;;
33266;SDS011;19638;49.080;11.896;2023-04-10T18:40:37;6.85;;;4.82;;
33266;SDS011;19638;49.080;11.896;2023-04-10T18:44:41;7.43;;;4.90;;
33266;SDS011;19638;49.080;11.896;2023-04-10T18:48:44;6.95;;;4.63;;
33266;SDS011;19638;49.080;11.896;2023-04-10T18:52:50;5.05;;;4.10;;
33266;SDS011;19638;49.080;11.896;2023-04-10T18:56:54;6.90;;;4.78;;
33266;SDS011;19638;49.080;11.896;2023-04-10T19:00:59;7.28;;;5.03;;
33266;SDS011;19638;49.080;11.896;2023-04-10T19:05:02;6.88;;;4.63;;
33266;SDS011;19638;49.080;11.896;2023-04-10T19:09:16;7.22;;;4.68;;
33266;SDS011;19638;49.080;11.896;2023-04-10T19:13:22;7.35;;;5.35;;
33266;SDS011;19638;49.080;11.896;2023-04-10T19:17:27;17.85;;;7.78;;
33266;SDS011;19638;49.080;11.896;2023-04-10T19:21:30;23.20;;;9.48;;
33266;SDS011;19638;49.080;11.896;2023-04-10T19:25:34;46.03;;;13.90;;
33266;SDS011;19638;49.080;11.896;2023-04-10T19:29:37;50.80;;;15.40;;
33266;SDS011;19638;49.080;11.896;2023-04-10T19:33:42;23.13;;;8.70;;
33266;SDS011;19638;49.080;11.896;2023-04-10T19:37:47;18.60;;;9.05;;
33266;SDS011;19638;49.080;11.896;2023-04-10T19:41:50;16.67;;;7.53;;
33266;SDS011;19638;49.080;11.896;2023-04-10T19:45:56;28.30;;;10.40;;
33266;SDS011;19638;49.080;11.896;2023-04-10T19:50:01;17.40;;;7.88;;
33266;SDS011;19638;49.080;11.896;2023-04-10T19:54:04;10.73;;;6.07;;
33266;SDS011;19638;49.080;11.896;2023-04-10T19:58:07;9.43;;;5.50;;
33266;SDS011;19638;49.080;11.896;2023-04-10T20:02:25;10.80;;;6.28;;
33266;SDS011;19638;49.080;11.896;2023-04-10T20:06:32;9.07;;;5.63;;
33266;SDS011;19638;49.080;11.896;2023-04-10T20:10:38;9.30;;;5.95;;
33266;SDS011;19638;49.080;11.896;2023-04-10T20:14:41;10.23;;;6.50;;
33266;SDS011;19638;49.080;11.896;2023-04-10T20:18:47;10.63;;;6.70;;
33266;SDS011;19638;49.080;11.896;2023-04-10T20:22:55;9.60;;;6.00;;
33266;SDS011;19638;49.080;11.896;2023-04-10T20:26:58;9.60;;;6.30;;
33266;SDS011;19638;49.080;11.896;2023-04-10T20:31:03;11.43;;;6.57;;
33266;SDS011;19638;49.080;11.896;2023-04-10T20:35:15;10.95;;;6.95;;
33266;SDS011;19638;49.080;11.896;2023-04-10T20:39:22;12.17;;;6.77;;
33266;SDS011;19638;49.080;11.896;2023-04-10T20:43:32;15.07;;;6.30;;
33266;SDS011;19638;49.080;11.896;2023-04-10T20:47:35;12.90;;;6.60;;
33266;SDS011;19638;49.080;11.896;2023-04-10T20:51:40;9.93;;;6.20;;
33266;SDS011;19638;49.080;11.896;2023-04-10T20:55:51;11.03;;;7.00;;
33266;SDS011;19638;49.080;11.896;2023-04-10T20:59:57;13.97;;;7.07;;
33266;SDS011;19638;49.080;11.896;2023-04-10T21:04:04;9.93;;;6.47;;
33266;SDS011;19638;49.080;11.896;2023-04-10T21:08:10;11.73;;;6.33;;
33266;SDS011;19638;49.080;11.896;2023-04-10T21:12:16;8.20;;;5.80;;
33266;SDS011;19638;49.080;11.896;2023-04-10T21:16:22;8.90;;;5.90;;
33266;SDS011;19638;49.080;11.896;2023-04-10T21:20:27;9.30;;;5.97;;
33266;SDS011;19638;49.080;11.896;2023-04-10T21:24:39;8.40;;;6.23;;
33266;SDS011;19638;49.080;11.896;2023-04-10T21:28:44;9.70;;;5.90;;
33266;SDS011;19638;49.080;11.896;2023-04-10T21:32:49;10.53;;;6.27;;
33266;SDS011;19638;49.080;11.896;2023-04-10T21:36:52;10.70;;;6.10;;
33266;SDS011;19638;49.080;11.896;2023-04-10T21:40:55;9.40;;;6.30;;
33266;SDS011;19638;49.080;11.896;2023-04-10T21:45:00;10.07;;;6.50;;
33266;SDS011;19638;49.080;11.896;2023-04-10T21:49:02;8.95;;;5.97;;
33266;SDS011;19638;49.080;11.896;2023-04-10T21:53:07;9.57;;;6.07;;
33266;SDS011;19638;49.080;11.896;2023-04-10T21:57:10;9.50;;;5.90;;
33266;SDS011;19638;49.080;11.896;2023-04-10T22:01:15;7.73;;;5.60;;
33266;SDS011;19638;49.080;11.896;2023-04-10T22:05:18;9.27;;;5.72;;
33266;SDS011;19638;49.080;11.896;2023-04-10T22:09:25;8.27;;;5.47;;
33266;SDS011;19638;49.080;11.896;2023-04-10T22:13:28;8.13;;;5.20;;
33266;SDS011;19638;49.080;11.896;2023-04-10T22:17:33;8.03;;;5.53;;
33266;SDS011;19638;49.080;11.896;2023-04-10T22:21:37;9.10;;;5.70;;
33266;SDS011;19638;49.080;11.896;2023-04-10T22:25:42;7.70;;;5.50;;
33266;SDS011;19638;49.080;11.896;2023-04-10T22:29:47;10.23;;;5.50;;
33266;SDS011;19638;49.080;11.896;2023-04-10T22:34:06;8.23;;;5.70;;
33266;SDS011;19638;49.080;11.896;2023-04-10T22:38:09;8.67;;;5.63;;
33266;SDS011;19638;49.080;11.896;2023-04-10T22:42:13;9.07;;;6.00;;
33266;SDS011;19638;49.080;11.896;2023-04-10T22:46:16;10.10;;;6.13;;
33266;SDS011;19638;49.080;11.896;2023-04-10T22:50:25;7.35;;;4.95;;
33266;SDS011;19638;49.080;11.896;2023-04-10T22:54:34;8.97;;;5.77;;
33266;SDS011;19638;49.080;11.896;2023-04-10T22:58:37;8.93;;;5.63;;
33266;SDS011;19638;49.080;11.896;2023-04-10T23:02:43;9.93;;;5.97;;
33266;SDS011;19638;49.080;11.896;2023-04-10T23:06:49;8.53;;;5.87;;
33266;SDS011;19638;49.080;11.896;2023-04-10T23:10:52;7.67;;;5.43;;
33266;SDS011;19638;49.080;11.896;2023-04-10T23:15:00;8.82;;;5.65;;
33266;SDS011;19638;49.080;11.896;2023-04-10T23:19:03;8.27;;;5.70;;
33266;SDS011;19638;49.080;11.896;2023-04-10T23:23:07;8.87;;;5.27;;
33266;SDS011;19638;49.080;11.896;2023-04-10T23:27:13;9.67;;;5.67;;
33266;SDS011;19638;49.080;11.896;2023-04-10T23:31:16;8.00;;;5.57;;
33266;SDS011;19638;49.080;11.896;2023-04-10T23:35:19;8.13;;;5.47;;
33266;SDS011;19638;49.080;11.896;2023-04-10T23:39:24;9.17;;;5.47;;
33266;SDS011;19638;49.080;11.896;2023-04-10T23:43:27;11.13;;;5.97;;
33266;SDS011;19638;49.080;11.896;2023-04-10T23:47:30;9.67;;;5.83;;
33266;SDS011;19638;49.080;11.896;2023-04-10T23:51:34;9.93;;;5.90;;
33266;SDS011;19638;49.080;11.896;2023-04-10T23:55:38;8.50;;;5.87;;
33266;SDS011;19638;49.080;11.896;2023-04-10T23:59:43;7.87;;;5.10;;
